Time;durP1;ratioP1;P1;durP2;ratioP2;P2;SDS_P1;SDS_P2;PMS_P1;PMS_P2;Temp;Humidity;BMP_temperature;BMP_pressure;BME280_temperature;BME280_humidity;BME280_pressure;Samples;Min_cycle;Max_cycle;Signal;HPM_P1;HPM_P2
2021/09/03 00:01:39;;;;;;;14.45;7.82;;;17.80;99.90;;;17.82;80.71;101422.94;4164157;28;20030;-68
2021/09/03 00:03:40;;;;;;;12.85;8.55;;;17.80;99.90;;;17.78;81.12;101423.50;4151838;28;20018;-68
2021/09/03 00:05:41;;;;;;;9.52;7.43;;;17.80;99.90;;;17.72;81.56;101416.22;4151904;28;20030;-68
2021/09/03 00:07:43;;;;;;;10.02;8.10;;;17.70;99.90;;;17.61;82.22;101418.38;4151826;28;20022;-68
2021/09/03 00:09:44;;;;;;;12.18;8.18;;;17.80;99.90;;;17.64;81.87;101418.00;4151944;28;20437;-68
2021/09/03 00:11:45;;;;;;;12.50;8.50;;;17.70;99.90;;;17.57;81.64;101406.41;4152077;28;20026;-68
2021/09/03 00:13:45;;;;;;;9.25;7.50;;;17.70;99.90;;;17.47;82.34;101405.03;4151874;28;20520;-68
2021/09/03 00:15:46;;;;;;;8.57;7.38;;;17.60;99.90;;;17.39;83.16;101421.94;4151738;28;20029;-68
2021/09/03 00:17:47;;;;;;;11.77;8.05;;;17.60;99.90;;;17.43;82.85;101419.72;4151833;28;20604;-68
2021/09/03 00:19:48;;;;;;;10.52;7.57;;;17.50;99.90;;;17.53;81.94;101420.28;4183185;28;20540;-68
2021/09/03 00:21:50;;;;;;;12.63;8.23;;;17.60;99.90;;;17.37;82.74;101405.28;4150512;28;20030;-68
2021/09/03 00:23:51;;;;;;;10.63;8.00;;;17.50;99.90;;;17.28;82.98;101406.38;4151687;28;20548;-68
2021/09/03 00:25:53;;;;;;;11.82;8.35;;;17.50;99.90;;;17.40;82.71;101410.25;4183457;28;20029;-68
2021/09/03 00:27:54;;;;;;;9.77;7.68;;;17.40;99.90;;;17.46;82.32;101414.03;4158565;28;20025;-68
2021/09/03 00:29:54;;;;;;;12.02;8.82;;;17.40;99.90;;;17.52;81.87;101414.13;4168257;28;20461;-68
2021/09/03 00:31:55;;;;;;;8.55;7.10;;;17.50;99.90;;;17.33;82.77;101414.66;4168067;28;20036;-68
2021/09/03 00:33:56;;;;;;;10.85;8.80;;;17.40;99.90;;;17.33;83.12;101411.16;4167966;28;20547;-68
2021/09/03 00:35:57;;;;;;;11.55;8.52;;;17.40;99.90;;;17.37;82.26;101407.97;4168244;28;20105;-68
2021/09/03 00:37:58;;;;;;;15.20;8.30;;;17.40;99.90;;;17.32;82.46;101406.84;4183243;28;20045;-68
2021/09/03 00:39:59;;;;;;;11.35;8.10;;;17.40;99.90;;;17.37;82.50;101404.47;4169103;28;20064;-68
2021/09/03 00:42:00;;;;;;;10.85;8.27;;;17.40;99.90;;;17.29;82.84;101408.06;4171084;28;20032;-68
2021/09/03 00:44:01;;;;;;;10.10;8.13;;;17.30;99.90;;;17.21;83.37;101400.13;4171150;28;20048;-68
2021/09/03 00:46:02;;;;;;;13.10;8.95;;;17.30;99.90;;;17.20;83.03;101401.16;4171124;28;20052;-68
2021/09/03 00:48:04;;;;;;;9.45;8.02;;;17.30;99.90;;;17.14;83.08;101410.69;4170968;28;20096;-68
2021/09/03 00:50:07;;;;;;;9.43;8.10;;;17.30;99.90;;;17.06;83.71;101400.13;4170742;28;20029;-68
2021/09/03 00:52:08;;;;;;;9.13;7.80;;;17.30;99.90;;;17.02;84.20;101401.47;4171160;28;20032;-68
2021/09/03 00:54:09;;;;;;;10.25;7.45;;;17.20;99.90;;;16.94;84.64;101401.56;4171030;28;20033;-68
2021/09/03 00:56:10;;;;;;;11.00;8.48;;;17.10;99.90;;;16.94;84.83;101390.06;4170662;28;20059;-68
2021/09/03 00:58:11;;;;;;;11.38;7.68;;;17.10;99.90;;;16.92;85.34;101394.75;4169442;28;20038;-68
2021/09/03 01:00:13;;;;;;;11.63;8.68;;;17.00;99.90;;;16.92;85.07;101394.75;4170635;28;20045;-68
2021/09/03 01:02:13;;;;;;;10.43;8.38;;;17.00;99.90;;;16.90;85.02;101394.13;4170754;28;20036;-68
2021/09/03 01:04:14;;;;;;;7.80;6.53;;;17.00;99.90;;;16.79;85.09;101384.72;4202334;28;20021;-68
2021/09/03 01:06:16;;;;;;;10.88;8.40;;;17.00;99.90;;;16.84;85.67;101384.19;4169314;28;20030;-68
2021/09/03 01:08:16;;;;;;;9.88;7.97;;;16.90;99.90;;;16.96;84.83;101385.41;4170689;28;20112;-68
2021/09/03 01:10:20;;;;;;;8.85;7.85;;;17.00;99.90;;;16.89;84.39;101373.81;4170817;28;20026;-68
2021/09/03 01:12:21;;;;;;;12.35;8.25;;;17.00;99.90;;;16.88;84.96;101377.47;4170572;28;20559;-68
2021/09/03 01:14:23;;;;;;;8.50;7.32;;;17.00;99.90;;;16.73;85.78;101373.94;4170406;28;20112;-68
2021/09/03 01:16:24;;;;;;;11.35;8.65;;;16.90;99.90;;;16.67;86.05;101372.84;4170779;28;20492;-68
2021/09/03 01:18:25;;;;;;;12.88;9.68;;;16.90;99.90;;;16.83;85.24;101380.69;4170411;28;20032;-68
2021/09/03 01:20:26;;;;;;;10.25;8.20;;;16.90;99.90;;;16.85;84.67;101377.84;4170447;28;20032;-68
2021/09/03 01:22:27;;;;;;;8.98;7.18;;;16.90;99.90;;;16.85;85.19;101373.34;4202198;28;20581;-68
2021/09/03 01:24:28;;;;;;;10.32;8.27;;;16.90;99.90;;;16.75;86.22;101366.63;4170468;28;20022;-68
2021/09/03 01:26:29;;;;;;;13.15;9.57;;;16.80;99.90;;;16.64;86.32;101370.53;4170380;28;20220;-68
2021/09/03 01:28:30;;;;;;;11.25;7.90;;;16.80;99.90;;;16.75;84.86;101371.94;4170303;28;20126;-68
2021/09/03 01:30:31;;;;;;;12.05;7.95;;;16.80;99.90;;;16.76;85.59;101371.75;4170216;28;20080;-68
2021/09/03 01:32:32;;;;;;;10.20;8.63;;;16.80;99.90;;;16.68;85.88;101365.69;4202379;28;20088;-68
2021/09/03 01:34:33;;;;;;;10.80;8.63;;;16.80;99.90;;;16.62;85.73;101366.41;4169947;28;20091;-68
2021/09/03 01:36:34;;;;;;;11.05;8.07;;;16.70;99.90;;;16.62;86.20;101369.91;4170085;28;20032;-68
2021/09/03 01:38:37;;;;;;;12.63;8.75;;;16.70;99.90;;;16.69;86.04;101375.34;4169973;28;20479;-68
2021/09/03 01:40:38;;;;;;;11.85;8.55;;;16.80;99.90;;;16.61;86.51;101364.75;4170158;28;20572;-68
2021/09/03 01:42:39;;;;;;;10.80;8.45;;;16.70;99.90;;;16.49;87.08;101359.81;4170100;28;20029;-68
2021/09/03 01:44:40;;;;;;;9.98;7.65;;;16.70;99.90;;;16.49;87.13;101359.81;4169874;28;20028;-68
2021/09/03 01:46:41;;;;;;;13.18;9.23;;;16.60;99.90;;;16.48;87.11;101366.16;4169964;28;20393;-68
2021/09/03 01:48:42;;;;;;;13.73;9.10;;;16.60;99.90;;;16.62;86.11;101367.22;4169785;28;20025;-68
2021/09/03 01:50:43;;;;;;;12.98;8.68;;;16.60;99.90;;;16.66;86.17;101362.38;4169578;28;20029;-68
2021/09/03 01:52:44;;;;;;;9.38;7.88;;;16.60;99.90;;;16.57;86.27;101365.13;4169233;28;20036;-68
2021/09/03 01:54:45;;;;;;;12.82;8.85;;;16.60;99.90;;;16.43;86.84;101362.34;4169871;28;20464;-68
2021/09/03 01:56:46;;;;;;;11.13;8.43;;;16.60;99.90;;;16.48;86.59;101366.16;4170011;28;20049;-68
2021/09/03 01:58:47;;;;;;;12.15;8.38;;;16.60;99.90;;;16.50;87.08;101366.81;4169576;28;20099;-68
2021/09/03 02:00:48;;;;;;;12.48;9.13;;;16.60;99.90;;;16.54;86.82;101356.66;4169902;28;20033;-68
2021/09/03 02:02:48;;;;;;;10.68;8.27;;;16.60;99.90;;;16.49;87.52;101357.16;4169806;28;20448;-68
2021/09/03 02:04:49;;;;;;;11.57;8.07;;;16.50;99.90;;;16.51;87.80;101355.16;4169685;28;20018;-68
2021/09/03 02:06:50;;;;;;;13.45;8.35;;;16.50;99.90;;;16.55;87.56;101352.97;4201676;28;20059;-68
2021/09/03 02:08:51;;;;;;;11.00;8.55;;;16.60;99.90;;;16.56;87.53;101352.81;4169679;28;20044;-68
2021/09/03 02:10:52;;;;;;;11.52;8.52;;;16.60;99.90;;;16.43;88.39;101344.53;4169414;28;20139;-68
2021/09/03 02:12:53;;;;;;;11.20;9.60;;;16.50;99.90;;;16.47;88.24;101345.03;4201514;28;20067;-68
2021/09/03 02:14:54;;;;;;;14.95;8.73;;;16.50;99.90;;;16.37;88.59;101353.25;4169512;28;20033;-68
2021/09/03 02:16:55;;;;;;;11.07;8.20;;;16.50;99.90;;;16.25;89.14;101337.88;4169425;28;20104;-68
2021/09/03 02:18:58;;;;;;;11.48;9.38;;;16.40;99.90;;;16.34;88.23;101342.13;4169005;28;20378;-68
2021/09/03 02:20:59;;;;;;;12.75;9.88;;;16.50;99.90;;;16.33;88.48;101340.50;4169631;28;20049;-68
2021/09/03 02:23:00;;;;;;;12.55;8.88;;;16.40;99.90;;;16.39;87.80;101347.75;4169563;28;20095;-68
2021/09/03 02:25:01;;;;;;;13.88;9.25;;;16.50;99.90;;;16.39;87.99;101348.59;4169345;28;20030;-68
2021/09/03 02:27:03;;;;;;;10.95;7.93;;;16.40;99.90;;;16.40;87.78;101352.06;4169222;28;20079;-68
2021/09/03 02:29:04;;;;;;;13.27;9.52;;;16.50;99.90;;;16.49;87.80;101345.66;4169242;28;20029;-68
2021/09/03 02:31:04;;;;;;;12.55;10.07;;;16.50;99.90;;;16.64;86.26;101348.38;4169368;28;20463;-68
2021/09/03 02:33:05;;;;;;;12.13;8.60;;;16.60;99.90;;;16.56;86.49;101341.31;4168987;28;20045;-68
2021/09/03 02:35:06;;;;;;;12.18;8.77;;;16.60;99.90;;;16.57;86.80;101335.00;4169382;28;20079;-68
2021/09/03 02:37:07;;;;;;;10.43;8.07;;;16.70;99.90;;;16.61;86.92;101343.44;4169257;28;20052;-68
2021/09/03 02:39:08;;;;;;;12.88;9.25;;;16.70;99.90;;;16.65;86.66;101332.25;4169157;28;20037;-68
2021/09/03 02:41:10;;;;;;;10.23;8.27;;;16.70;99.90;;;16.61;86.50;101332.81;4169176;28;20029;-68
2021/09/03 02:43:11;;;;;;;12.45;10.02;;;16.70;99.90;;;16.64;86.94;101332.41;4169088;28;20029;-68
2021/09/03 02:45:12;;;;;;;11.23;9.18;;;16.70;99.90;;;16.60;86.75;101323.97;4168114;28;20410;-68
2021/09/03 02:47:13;;;;;;;10.40;8.48;;;16.70;99.90;;;16.60;87.13;101329.31;4200965;28;20024;-68
2021/09/03 02:49:13;;;;;;;12.57;10.07;;;16.70;99.90;;;16.56;87.30;101334.16;4167619;28;20029;-68
2021/09/03 02:51:14;;;;;;;12.63;9.77;;;16.70;99.90;;;16.53;87.61;101329.16;4169010;28;20064;-68
2021/09/03 02:53:15;;;;;;;11.05;8.57;;;16.70;99.90;;;16.47;87.73;101327.22;4168839;28;20408;-68
2021/09/03 02:55:16;;;;;;;13.35;9.40;;;16.70;99.90;;;16.49;87.98;101322.53;4168979;28;20034;-68
2021/09/03 02:57:17;;;;;;;13.40;9.13;;;16.60;99.90;;;16.52;87.77;101329.31;4168873;28;20025;-68
2021/09/03 02:59:18;;;;;;;12.45;10.05;;;16.60;99.90;;;16.49;88.16;101327.03;4168802;28;20200;-68
2021/09/03 03:01:19;;;;;;;11.60;9.13;;;16.60;99.90;;;16.56;87.85;101322.66;4168935;28;20192;-68
2021/09/03 03:03:20;;;;;;;15.40;9.77;;;16.70;99.90;;;16.63;86.92;101315.63;4168301;28;20037;-68
2021/09/03 03:05:22;;;;;;;12.55;9.07;;;16.70;99.90;;;16.64;86.93;101329.75;4168835;28;20464;-68
2021/09/03 03:07:23;;;;;;;13.60;8.85;;;16.70;99.90;;;16.50;87.62;101315.38;4168948;28;20499;-68
2021/09/03 03:09:24;;;;;;;15.50;9.70;;;16.70;99.90;;;16.39;88.46;101319.31;4168665;28;20049;-68
2021/09/03 03:11:25;;;;;;;13.60;8.93;;;16.70;99.90;;;16.49;88.43;101324.34;4168768;28;20030;-68
2021/09/03 03:13:28;;;;;;;11.27;8.32;;;16.70;99.90;;;16.38;89.09;101312.31;4168789;28;20021;-68
2021/09/03 03:15:28;;;;;;;14.53;10.27;;;16.70;99.90;;;16.50;87.75;101316.19;4168699;28;20032;-68
2021/09/03 03:17:30;;;;;;;12.85;9.38;;;16.70;99.90;;;16.62;87.04;101316.63;4168461;28;20033;-68
2021/09/03 03:19:31;;;;;;;14.25;10.40;;;16.80;99.90;;;16.68;86.29;101301.75;4168415;28;20040;-68
2021/09/03 03:21:32;;;;;;;12.43;9.30;;;16.80;99.90;;;16.72;86.69;101314.53;4168623;28;20025;-68
2021/09/03 03:23:34;;;;;;;10.00;8.70;;;16.90;99.90;;;16.54;87.44;101312.22;4168571;28;20378;-68
2021/09/03 03:25:34;;;;;;;12.70;9.48;;;16.90;99.90;;;16.61;87.57;101316.81;4168473;28;20081;-68
2021/09/03 03:27:35;;;;;;;12.05;9.30;;;16.90;99.90;;;16.71;86.43;101317.38;4168535;28;20035;-68
2021/09/03 03:29:36;;;;;;;14.13;11.02;;;16.90;99.90;;;16.77;86.30;101316.63;4168705;28;20101;-68
2021/09/03 03:31:37;;;;;;;12.73;9.60;;;16.90;99.90;;;16.85;85.89;101316.53;4168592;28;20081;-68
2021/09/03 03:33:38;;;;;;;11.65;9.10;;;17.00;99.90;;;16.79;87.08;101319.94;4168282;28;20040;-69
2021/09/03 03:35:39;;;;;;;13.55;10.30;;;17.00;99.90;;;16.78;86.57;101310.31;4168683;28;20029;-68
2021/09/03 03:37:40;;;;;;;13.75;9.70;;;17.00;99.90;;;16.77;87.33;101309.47;4168658;28;20039;-68
2021/09/03 03:39:41;;;;;;;13.10;9.85;;;17.00;99.90;;;16.74;87.86;101301.00;4168675;28;20071;-68
2021/09/03 03:41:42;;;;;;;12.68;8.90;;;17.00;99.90;;;16.72;88.57;101298.53;4168584;28;20477;-68
2021/09/03 03:43:43;;;;;;;13.35;10.25;;;17.00;99.90;;;16.80;86.92;101300.28;4168634;28;20025;-68
2021/09/03 03:45:44;;;;;;;13.13;9.52;;;17.00;99.90;;;16.75;87.73;101297.34;4168512;28;20030;-68
2021/09/03 03:47:45;;;;;;;15.32;10.90;;;17.00;99.90;;;16.73;87.16;101294.84;4168480;28;20076;-68
2021/09/03 03:49:46;;;;;;;12.07;9.57;;;17.00;99.90;;;16.76;86.83;101301.66;4168252;28;20057;-68
2021/09/03 03:51:47;;;;;;;14.63;9.85;;;17.10;99.90;;;16.82;86.96;101293.75;4168553;28;20022;-68
2021/09/03 03:53:48;;;;;;;12.98;9.00;;;17.10;99.90;;;16.76;86.98;101293.66;4168533;28;20480;-68
2021/09/03 03:55:49;;;;;;;12.25;9.68;;;17.00;99.90;;;16.71;88.01;101290.72;4168532;28;20109;-68
2021/09/03 03:57:50;;;;;;;13.35;10.77;;;17.00;99.90;;;16.84;86.50;101297.09;4168462;28;20052;-68
2021/09/03 03:59:51;;;;;;;11.85;9.05;;;17.10;99.90;;;16.79;86.94;101290.63;4168157;28;20095;-68
2021/09/03 04:01:51;;;;;;;10.35;8.38;;;17.10;99.90;;;16.73;88.23;101294.84;4168424;28;20021;-68
2021/09/03 04:03:52;;;;;;;14.40;9.82;;;17.00;99.90;;;16.86;87.19;101283.56;4168216;28;20033;-68
2021/09/03 04:05:53;;;;;;;14.52;10.05;;;17.10;99.90;;;16.89;86.82;101286.69;4168321;28;20480;-68
2021/09/03 04:07:54;;;;;;;13.40;10.07;;;17.10;99.90;;;16.85;87.23;101281.91;4168338;28;20088;-68
2021/09/03 04:09:55;;;;;;;15.13;10.70;;;17.10;99.90;;;16.89;86.48;101288.53;4168336;28;20469;-68
2021/09/03 04:11:56;;;;;;;13.07;9.90;;;17.10;99.90;;;16.90;87.26;101290.19;4168277;28;20032;-68
2021/09/03 04:13:57;;;;;;;13.20;9.48;;;17.20;99.90;;;16.93;87.10;101289.81;4168273;28;20034;-68
2021/09/03 04:15:58;;;;;;;11.68;9.35;;;17.20;99.90;;;16.86;87.49;101300.38;4170762;28;20034;-68
2021/09/03 04:17:59;;;;;;;13.65;9.68;;;17.10;99.90;;;16.74;87.97;101285.84;4171444;28;20112;-68
2021/09/03 04:20:00;;;;;;;14.80;10.65;;;17.10;99.90;;;16.87;87.73;101290.56;4171440;28;20036;-68
2021/09/03 04:22:01;;;;;;;13.60;10.77;;;17.10;99.90;;;16.89;87.09;101293.84;4171341;28;20489;-68
2021/09/03 04:24:02;;;;;;;15.70;11.20;;;17.10;99.90;;;17.01;86.39;101303.06;4171230;28;20115;-68
2021/09/03 04:26:02;;;;;;;14.95;10.25;;;17.10;99.90;;;16.88;87.33;101302.84;4170164;28;20030;-68
2021/09/03 04:28:04;;;;;;;15.07;10.90;;;17.10;99.90;;;16.95;86.67;101303.78;4171261;28;20108;-68
2021/09/03 04:30:06;;;;;;;17.33;11.20;;;17.10;99.90;;;16.91;86.78;101303.31;4171269;28;20037;-68
2021/09/03 04:32:07;;;;;;;17.08;11.30;;;17.10;99.90;;;16.88;87.25;101308.19;4170033;28;20405;-68
2021/09/03 04:34:08;;;;;;;14.10;10.70;;;17.10;99.90;;;16.77;87.94;101305.97;4171034;28;20167;-68
2021/09/03 04:36:09;;;;;;;11.85;10.65;;;17.10;99.90;;;16.70;88.29;101299.72;4171262;28;20489;-68
2021/09/03 04:38:10;;;;;;;13.63;10.82;;;17.10;99.90;;;16.87;87.57;101307.38;4170896;28;20116;-68
2021/09/03 04:40:13;;;;;;;13.57;9.70;;;17.10;99.90;;;16.76;87.95;101288.31;4170939;28;20033;-68
2021/09/03 04:42:13;;;;;;;16.90;11.98;;;17.10;99.90;;;16.91;87.81;101299.81;4171110;28;20036;-68
2021/09/03 04:44:14;;;;;;;13.15;9.98;;;17.10;99.90;;;16.80;88.38;101308.28;4171158;28;20420;-68
2021/09/03 04:46:15;;;;;;;14.20;10.40;;;17.10;99.90;;;16.70;88.77;101295.22;4171154;28;20036;-68
2021/09/03 04:48:17;;;;;;;15.70;10.88;;;17.00;99.90;;;16.84;87.57;101306.91;4170829;28;20029;-68
2021/09/03 04:50:18;;;;;;;11.90;10.15;;;17.10;99.90;;;16.73;88.06;101276.22;4170962;28;20096;-68
2021/09/03 04:52:18;;;;;;;16.38;11.77;;;17.10;99.90;;;16.81;87.75;101291.28;4170940;28;20025;-68
2021/09/03 04:54:19;;;;;;;13.13;10.85;;;17.10;99.90;;;16.90;87.81;101304.34;4170947;28;20041;-68
2021/09/03 04:56:20;;;;;;;12.95;10.20;;;17.10;99.90;;;16.90;87.52;101304.34;4170695;28;20060;-68
2021/09/03 04:58:21;;;;;;;15.25;11.43;;;17.10;99.90;;;17.02;87.25;101302.06;4170743;28;20033;-68
2021/09/03 05:00:22;;;;;;;16.35;11.45;;;17.10;99.90;;;16.83;87.50;101306.09;4170386;28;20394;-68
2021/09/03 05:02:23;;;;;;;17.27;11.45;;;17.10;99.90;;;16.92;87.69;101310.31;4170825;28;20030;-68
2021/09/03 05:04:24;;;;;;;16.42;10.55;;;17.10;99.90;;;16.82;88.16;101324.91;4170316;28;20099;-68
2021/09/03 05:06:25;;;;;;;15.65;10.90;;;17.10;99.90;;;16.77;88.20;101317.47;4170744;28;20025;-68
2021/09/03 05:08:26;;;;;;;15.80;11.52;;;17.10;99.90;;;16.80;87.93;101325.09;4170684;28;20112;-68
2021/09/03 05:10:27;;;;;;;13.90;10.50;;;17.10;99.90;;;16.89;87.42;101328.50;4170592;28;20031;-68
2021/09/03 05:12:28;;;;;;;14.70;11.23;;;17.10;99.90;;;16.90;87.69;101324.84;4170552;28;20382;-68
2021/09/03 05:14:29;;;;;;;13.90;10.95;;;17.10;99.90;;;16.98;86.97;101330.06;4170667;28;20044;-68
2021/09/03 05:16:30;;;;;;;16.05;11.20;;;17.10;99.90;;;16.97;87.33;101325.75;4170561;28;20033;-68
2021/09/03 05:18:31;;;;;;;14.85;11.38;;;17.20;99.90;;;16.89;87.91;101334.66;4170284;28;20038;-68
2021/09/03 05:20:32;;;;;;;16.63;10.30;;;17.10;99.90;;;16.82;88.39;101330.22;4170486;28;20025;-68
2021/09/03 05:22:34;;;;;;;13.88;11.13;;;17.10;99.90;;;16.81;88.66;101329.44;4170574;28;20061;-68
2021/09/03 05:24:35;;;;;;;15.05;11.23;;;17.10;99.90;;;16.88;88.15;101332.16;4170738;28;20022;-68
2021/09/03 05:26:36;;;;;;;15.30;11.57;;;17.10;99.90;;;16.94;87.54;101339.44;4170350;28;20120;-68
2021/09/03 05:28:38;;;;;;;13.88;10.77;;;17.10;99.90;;;16.99;87.51;101340.53;4170430;28;20033;-68
2021/09/03 05:30:39;;;;;;;13.95;10.52;;;17.10;99.90;;;16.89;88.50;101342.66;4170404;28;20493;-68
2021/09/03 05:32:40;;;;;;;19.10;13.15;;;17.20;99.90;;;16.91;87.83;101342.47;4170428;28;20040;-68
2021/09/03 05:34:41;;;;;;;16.38;11.40;;;17.10;99.90;;;16.94;87.64;101344.75;4170173;28;20029;-68
2021/09/03 05:36:42;;;;;;;13.95;9.68;;;17.10;99.90;;;16.80;87.94;101332.25;4170350;28;20124;-68
2021/09/03 05:38:43;;;;;;;13.00;10.77;;;17.10;99.90;;;16.86;87.77;101339.53;4169974;28;20040;-68
2021/09/03 05:40:44;;;;;;;15.07;11.60;;;17.10;99.90;;;16.90;87.45;101343.50;4170125;28;20108;-68
2021/09/03 05:42:45;;;;;;;13.93;10.63;;;17.10;99.90;;;16.80;88.06;101341.09;4170180;28;20449;-68
2021/09/03 05:44:46;;;;;;;17.55;12.68;;;17.10;99.90;;;16.73;87.29;101332.16;4170196;28;20048;-68
2021/09/03 05:46:46;;;;;;;15.32;11.55;;;17.10;99.90;;;16.84;87.88;101350.38;4170006;28;20025;-68
2021/09/03 05:48:47;;;;;;;14.98;11.52;;;17.10;99.90;;;16.86;87.89;101332.38;4169937;28;20029;-68
2021/09/03 05:50:49;;;;;;;14.98;10.85;;;17.10;99.90;;;16.85;88.36;101340.53;4170030;28;20424;-68
2021/09/03 05:52:50;;;;;;;17.63;12.63;;;17.10;99.90;;;16.88;87.70;101340.16;4170077;28;20025;-68
2021/09/03 05:54:51;;;;;;;13.35;10.27;;;17.10;99.90;;;16.78;88.33;101328.97;4169643;28;20029;-68
2021/09/03 05:56:52;;;;;;;15.43;12.07;;;17.10;99.90;;;16.79;88.38;101346.56;4168634;28;20037;-68
2021/09/03 05:58:53;;;;;;;14.55;11.57;;;17.10;99.90;;;16.77;88.88;101346.78;4168665;28;20128;-68
2021/09/03 06:00:54;;;;;;;16.92;12.10;;;17.10;99.90;;;16.83;88.55;101347.88;4170048;28;20033;-68
2021/09/03 06:02:55;;;;;;;13.02;11.40;;;17.10;99.90;;;16.88;88.26;101350.81;4169583;28;20422;-68
2021/09/03 06:04:56;;;;;;;17.60;12.88;;;17.10;99.90;;;16.89;88.29;101347.16;4170031;28;20083;-69
2021/09/03 06:06:57;;;;;;;14.32;11.50;;;17.10;99.90;;;16.84;88.75;101354.88;4169988;28;20033;-68
2021/09/03 06:08:57;;;;;;;17.35;12.93;;;17.10;99.90;;;16.78;88.73;101344.94;4169939;28;20021;-68
2021/09/03 06:10:58;;;;;;;18.90;12.63;;;17.10;99.90;;;16.78;88.51;101347.63;4169661;28;20033;-68
2021/09/03 06:12:59;;;;;;;18.25;13.23;;;17.10;99.90;;;16.87;88.03;101352.69;4169874;28;20390;-68
2021/09/03 06:15:00;;;;;;;16.85;12.93;;;17.10;99.90;;;16.92;87.64;101358.28;4169806;28;20068;-68
2021/09/03 06:17:01;;;;;;;17.80;13.27;;;17.10;99.90;;;16.79;88.37;101342.09;4169678;28;20026;-68
2021/09/03 06:19:03;;;;;;;17.27;12.32;;;17.10;99.90;;;16.86;87.98;101352.84;4169214;28;20044;-68
2021/09/03 06:21:04;;;;;;;18.20;12.57;;;17.20;99.90;;;16.86;88.48;101359.00;4169626;28;20028;-68
2021/09/03 06:23:05;;;;;;;18.33;13.40;;;17.20;99.90;;;16.80;88.39;101367.72;4169622;28;20393;-68
2021/09/03 06:25:07;;;;;;;16.25;11.63;;;17.10;99.90;;;16.79;88.80;101367.91;4169595;28;20116;-68
2021/09/03 06:27:10;;;;;;;15.68;12.65;;;17.10;99.90;;;16.88;88.26;101367.66;4169322;28;20029;-68
2021/09/03 06:29:36;;;;;;;16.48;11.77;;;17.20;99.90;;;16.92;88.39;101360.94;4169485;28;20036;-68
2021/09/03 06:31:32;;;;;;;13.73;10.55;;;17.20;99.90;;;16.86;88.79;101355.50;4169441;28;20489;-68
2021/09/03 06:33:32;;;;;;;16.83;12.10;;;17.20;99.90;;;16.84;89.68;101354.88;4169051;28;20032;-68
2021/09/03 06:35:33;;;;;;;17.70;13.55;;;17.20;99.90;;;16.91;88.74;101356.63;4169228;28;20041;-68
2021/09/03 06:37:34;;;;;;;17.48;11.77;;;17.20;99.90;;;16.91;89.01;101361.94;4168754;28;20024;-68
2021/09/03 06:39:36;;;;;;;17.35;11.68;;;17.20;99.90;;;17.02;88.99;101360.69;4169179;28;20022;-68
2021/09/03 06:41:37;;;;;;;15.02;11.55;;;17.20;99.90;;;16.92;89.55;101368.13;4169323;28;20022;-68
2021/09/03 06:43:38;;;;;;;16.92;12.55;;;17.20;99.90;;;16.93;88.84;101361.78;4169160;28;20029;-68
2021/09/03 06:45:39;;;;;;;17.02;12.38;;;17.20;99.90;;;16.99;88.88;101363.72;4169286;28;20059;-68
2021/09/03 06:47:40;;;;;;;17.30;12.15;;;17.20;99.90;;;17.06;88.87;101370.78;4169162;28;20469;-68
2021/09/03 06:49:41;;;;;;;16.15;11.52;;;17.20;99.90;;;17.05;89.37;101368.31;4168794;28;20025;-68
2021/09/03 06:51:42;;;;;;;18.70;12.50;;;17.30;99.90;;;17.02;90.00;101360.69;4168846;28;20104;-68
2021/09/03 06:53:43;;;;;;;16.17;11.30;;;17.30;99.90;;;16.97;89.96;101361.22;4168980;28;20042;-69
2021/09/03 06:55:44;;;;;;;15.40;11.27;;;17.30;99.90;;;16.88;90.15;101372.97;4167625;28;20018;-68
2021/09/03 06:57:45;;;;;;;18.02;12.63;;;17.30;99.90;;;16.95;90.49;101376.56;4163778;28;20064;-68
2021/09/03 06:59:46;;;;;;;16.10;12.40;;;17.30;99.90;;;16.97;90.99;101377.22;4153616;28;20057;-68
2021/09/03 07:01:48;;;;;;;19.95;13.15;;;17.30;99.90;;;17.00;90.15;101382.19;4153754;28;20026;-68
2021/09/03 07:03:49;;;;;;;20.05;12.32;;;17.30;99.90;;;16.96;90.02;101374.75;4153662;28;20033;-68
2021/09/03 07:05:50;;;;;;;16.52;12.82;;;17.30;99.90;;;16.89;90.50;101387.97;4153837;28;20026;-68
2021/09/03 07:07:51;;;;;;;17.70;11.93;;;17.30;99.90;;;16.89;90.72;101384.47;4153284;28;20034;-69
2021/09/03 07:09:54;;;;;;;17.80;12.45;;;17.30;99.90;;;16.93;92.11;101385.78;4154071;28;20038;-68
2021/09/03 07:11:55;;;;;;;19.17;13.18;;;17.30;99.90;;;16.88;91.80;101383.63;4154024;28;20034;-68
2021/09/03 07:13:56;;;;;;;15.85;13.30;;;17.30;99.90;;;16.92;92.05;101379.59;4153766;28;20030;-69
2021/09/03 07:15:57;;;;;;;19.23;13.80;;;17.30;99.90;;;16.92;93.32;101381.44;4153394;28;20029;-68
2021/09/03 07:17:58;;;;;;;19.45;13.38;;;17.30;99.90;;;16.81;94.39;101380.06;4156504;28;20038;-69
2021/09/03 07:20:00;;;;;;;18.70;13.52;;;17.20;99.90;;;16.79;94.85;101376.72;4169574;28;20489;-69
2021/09/03 07:22:03;;;;;;;18.52;14.52;;;17.20;99.90;;;16.68;94.02;101379.00;4169491;28;20507;-69
2021/09/03 07:24:04;;;;;;;15.38;12.85;;;17.20;99.90;;;16.65;94.69;101377.53;4168362;28;20536;-69
2021/09/03 07:26:06;;;;;;;16.80;13.48;;;17.10;99.90;;;16.77;95.38;101384.09;4169615;28;20033;-69
2021/09/03 07:28:07;;;;;;;19.08;14.63;;;17.20;99.90;;;16.81;95.36;101388.06;4169432;28;20033;-69
2021/09/03 07:30:08;;;;;;;17.75;13.68;;;17.20;99.90;;;16.81;95.30;101387.22;4169137;28;20485;-69
2021/09/03 07:32:09;;;;;;;21.00;14.77;;;17.20;99.90;;;16.80;96.05;101380.22;4169304;28;20568;-69
2021/09/03 07:34:10;;;;;;;18.65;14.05;;;17.20;99.90;;;16.81;96.72;101374.72;4169213;28;20037;-69
2021/09/03 07:36:12;;;;;;;19.10;13.93;;;17.20;99.90;;;16.90;95.55;101380.81;4169427;28;20033;-69
2021/09/03 07:38:13;;;;;;;20.08;14.02;;;17.20;99.90;;;16.95;95.51;101379.25;4169334;28;20033;-69
2021/09/03 07:40:14;;;;;;;19.63;14.50;;;17.20;99.90;;;16.89;95.33;101377.31;4165883;28;20393;-69
2021/09/03 07:42:15;;;;;;;19.20;14.88;;;17.30;99.90;;;16.95;95.33;101378.41;4168342;28;20037;-69
2021/09/03 07:44:16;;;;;;;22.35;16.48;;;17.30;99.90;;;16.85;95.20;101383.16;4168355;28;20022;-69
2021/09/03 07:46:17;;;;;;;20.42;15.75;;;17.30;99.90;;;16.90;95.48;101378.97;4167749;28;20473;-67
2021/09/03 07:48:17;;;;;;;16.73;11.93;;;17.30;99.90;;;16.88;96.14;101382.78;4167997;28;20030;-68
2021/09/03 07:50:18;;;;;;;20.27;15.05;;;17.30;99.90;;;16.99;96.29;101379.72;4171891;28;20041;-68
2021/09/03 07:52:19;;;;;;;17.25;14.07;;;17.40;99.90;;;17.03;96.24;101386.31;4171890;28;20497;-68
2021/09/03 07:54:20;;;;;;;20.42;14.45;;;17.40;99.90;;;17.04;95.35;101372.00;4171803;28;20041;-68
2021/09/03 07:56:21;;;;;;;18.75;14.48;;;17.50;99.90;;;17.09;94.98;101380.25;4171638;28;20056;-68
2021/09/03 07:58:22;;;;;;;19.08;15.27;;;17.50;99.90;;;17.03;95.92;101381.81;4171568;28;20033;-68
2021/09/03 08:00:23;;;;;;;23.48;15.32;;;17.50;99.90;;;17.09;95.30;101380.25;4171477;28;20462;-68
2021/09/03 08:02:24;;;;;;;18.85;14.52;;;17.60;99.90;;;17.17;95.19;101380.19;4171693;28;20437;-67
2021/09/03 08:04:25;;;;;;;20.70;15.82;;;17.60;99.90;;;17.16;94.65;101378.53;4171274;28;20040;-68
2021/09/03 08:06:26;;;;;;;21.52;16.42;;;17.60;99.90;;;17.18;94.56;101379.16;4171687;28;20144;-68
2021/09/03 08:08:27;;;;;;;18.55;15.55;;;17.70;99.90;;;17.27;94.48;101383.38;4171659;28;20029;-68
2021/09/03 08:10:31;;;;;;;20.13;14.27;;;17.70;99.90;;;17.24;94.79;101378.44;4171601;28;20045;-68
2021/09/03 08:12:32;;;;;;;20.50;15.57;;;17.80;99.90;;;17.33;94.82;101384.50;4171651;28;20021;-68
2021/09/03 08:14:35;;;;;;;18.80;13.52;;;17.80;99.90;;;17.38;94.86;101374.13;4171547;28;20029;-68
2021/09/03 08:16:36;;;;;;;16.85;13.48;;;17.80;99.90;;;17.32;95.72;101374.84;4171655;28;20032;-68